Kangra Airport


Codes: VIGG/DHM
Name: Kangra Airport
City:
Country: India
Elevation: 2525 ft.

Photos at Kangra Airport


   Photos courtesy of SpottingLog. You can add your own sightings and photos by signing up for a free trial today.



No photos found.

Weather at Kangra Airport


Time (UTC)DescriptionTempratureWindCloud coverageVisibilityPressureHumidity
23-May-2024 21:00Few Clouds28°C9 mph, NE11%10000m1005hPa38%
24-May-2024 00:00Clear Sky27°C9 mph, NE5%10000m1005hPa36%
24-May-2024 03:00Clear Sky32°C7 mph, SW0%10000m1006hPa30%
24-May-2024 06:00Clear Sky36°C11 mph, SW0%10000m1005hPa27%
24-May-2024 09:00Scattered Clouds38°C9 mph, SW38%10000m1002hPa22%
24-May-2024 12:00Scattered Clouds37°C7 mph, SW47%10000m1000hPa22%
24-May-2024 15:00Light Rain32°C9 mph, NE74%10000m1002hPa33%
24-May-2024 18:00Scattered Clouds29°C9 mph, NE41%10000m1003hPa36%
24-May-2024 21:00Clear Sky29°C11 mph, NE0%10000m1002hPa33%
25-May-2024 00:00Clear Sky28°C11 mph, NE0%10000m1002hPa32%
25-May-2024 03:00Clear Sky36°C4 mph, SW0%10000m1002hPa18%
25-May-2024 06:00Clear Sky40°C13 mph, SW0%10000m1001hPa15%
25-May-2024 09:00Clear Sky42°C16 mph, W2%10000m998hPa11%
25-May-2024 12:00Clear Sky40°C16 mph, W2%10000m997hPa11%
25-May-2024 15:00Clear Sky33°C9 mph, NE0%10000m999hPa15%
25-May-2024 18:00Clear Sky31°C11 mph, NE0%10000m1000hPa17%
25-May-2024 21:00Clear Sky30°C11 mph, NE0%10000m999hPa19%
26-May-2024 00:00Clear Sky30°C11 mph, NE0%10000m999hPa20%
26-May-2024 03:00Clear Sky38°C4 mph, SW0%10000m999hPa12%
26-May-2024 06:00Clear Sky41°C11 mph, SW0%10000m999hPa10%
26-May-2024 09:00Clear Sky43°C13 mph, SW0%10000m996hPa7%
26-May-2024 12:00Clear Sky41°C16 mph, W0%10000m995hPa8%
26-May-2024 15:00Clear Sky33°C9 mph, NE0%10000m998hPa13%
26-May-2024 18:00Clear Sky32°C11 mph, NE0%10000m999hPa15%
26-May-2024 21:00Clear Sky32°C11 mph, NE0%10000m998hPa15%
27-May-2024 00:00Clear Sky30°C7 mph, NE0%10000m999hPa17%
27-May-2024 03:00Clear Sky37°C9 mph, W0%10000m999hPa14%
27-May-2024 06:00Clear Sky39°C11 mph, SW1%10000m1000hPa19%
27-May-2024 09:00Clear Sky41°C13 mph, SW0%10000m997hPa19%
27-May-2024 12:00Light Rain34°C18 mph, N22%10000m998hPa37%
27-May-2024 15:00Light Rain31°C13 mph, NE55%10000m998hPa32%
27-May-2024 18:00Scattered Clouds31°C11 mph, NE42%10000m998hPa28%
27-May-2024 21:00Light Rain30°C11 mph, NE17%10000m997hPa29%
28-May-2024 00:00Light Rain30°C9 mph, NE33%10000m998hPa28%
28-May-2024 03:00Few Clouds38°C7 mph, S16%10000m997hPa20%
28-May-2024 06:00Clear Sky39°C11 mph, SW8%10000m997hPa19%
28-May-2024 09:00Light Rain38°C9 mph, NW25%10000m995hPa26%
28-May-2024 12:00Moderate Rain31°C18 mph, NE58%10000m995hPa40%
28-May-2024 15:00Broken Clouds29°C9 mph, NE83%10000m997hPa35%
28-May-2024 18:00Broken Clouds30°C11 mph, NE52%10000m996hPa28%